Time;durP1;ratioP1;P1;durP2;ratioP2;P2;SDS_P1;SDS_P2;PMS_P1;PMS_P2;Temp;Humidity;BMP_temperature;BMP_pressure;BME280_temperature;BME280_humidity;BME280_pressure;Samples;Min_cycle;Max_cycle;Signal;HPM_P1;HPM_P2
2022/12/08 00:01:49;;;;;;;0.20;0.20;;;2.10;99.90;;;;;;5115574;28;20096;-65
2022/12/08 00:04:14;;;;;;;0.30;0.30;;;2.10;99.90;;;;;;5115594;28;20031;-64
2022/12/08 00:09:33;;;;;;;0.85;0.10;;;2.10;99.90;;;;;;5115189;28;20048;-64
2022/12/08 00:12:01;;;;;;;0.60;0.35;;;2.10;99.90;;;;;;5114178;28;20088;-64
2022/12/08 00:14:35;;;;;;;0.43;0.28;;;2.10;99.90;;;;;;5115390;28;20032;-64
2022/12/08 00:17:02;;;;;;;0.20;0.20;;;2.20;99.90;;;;;;5115004;28;20063;-65
2022/12/08 00:19:28;;;;;;;0.17;0.17;;;2.10;99.90;;;;;;5115161;28;20040;-64
2022/12/08 00:21:55;;;;;;;0.30;0.10;;;2.20;99.90;;;;;;5113691;28;20055;-65
2022/12/08 00:24:22;;;;;;;2.17;0.60;;;2.20;99.90;;;;;;5113602;28;20075;-64
2022/12/08 00:26:48;;;;;;;0.20;0.20;;;2.10;99.90;;;;;;5114734;28;20163;-64
2022/12/08 00:29:14;;;;;;;0.32;0.30;;;2.10;99.90;;;;;;5115030;28;20044;-64
2022/12/08 00:31:40;;;;;;;2.08;0.68;;;2.20;99.90;;;;;;5115000;28;20035;-64
2022/12/08 00:34:06;;;;;;;0.38;0.32;;;2.20;99.90;;;;;;5115002;28;20536;-65
2022/12/08 00:36:31;;;;;;;4.85;0.40;;;2.10;99.90;;;;;;5113366;28;20039;-64
2022/12/08 00:38:57;;;;;;;0.95;0.30;;;2.10;99.90;;;;;;5147746;27;20165;-65
2022/12/08 00:44:13;;;;;;;2.58;0.50;;;2.20;99.90;;;;;;5114515;28;20079;-65
2022/12/08 00:46:39;;;;;;;3.42;0.43;;;2.20;99.90;;;;;;5113120;28;20554;-64
2022/12/08 00:49:05;;;;;;;1.33;0.50;;;2.30;99.90;;;;;;5114678;28;20115;-64
2022/12/08 00:51:32;;;;;;;2.85;0.47;;;2.40;99.90;;;;;;5113083;28;20156;-65
2022/12/08 00:53:57;;;;;;;1.55;0.40;;;2.40;99.90;;;;;;5114287;28;20032;-64
2022/12/08 00:56:23;;;;;;;0.55;0.47;;;2.50;99.90;;;;;;5114312;28;20122;-65
2022/12/08 00:58:48;;;;;;;3.35;0.43;;;2.50;99.90;;;;;;5114460;28;20039;-65
2022/12/08 01:01:14;;;;;;;0.32;0.28;;;2.60;99.90;;;;;;5114398;28;20035;-65
2022/12/08 01:03:41;;;;;;;4.85;0.63;;;2.70;99.90;;;;;;5112839;28;20383;-64
2022/12/08 01:06:08;;;;;;;4.22;0.73;;;2.70;99.90;;;;;;5113968;27;20039;-65
2022/12/08 01:08:35;;;;;;;1.70;0.50;;;2.70;99.90;;;;;;5114068;28;20040;-65
2022/12/08 01:11:06;;;;;;;6.28;0.55;;;2.60;99.90;;;;;;5113944;28;20049;-64
2022/12/08 01:13:32;;;;;;;1.77;0.63;;;2.70;99.90;;;;;;5114206;28;20681;-65
2022/12/08 01:15:57;;;;;;;0.38;0.38;;;2.70;99.90;;;;;;5113874;28;20031;-64
2022/12/08 01:18:23;;;;;;;0.80;0.30;;;2.70;99.90;;;;;;5147039;27;20043;-64
2022/12/08 01:20:48;;;;;;;1.52;0.40;;;2.80;99.90;;;;;;5112811;28;20048;-66
2022/12/08 01:23:14;;;;;;;0.52;0.38;;;2.70;99.90;;;;;;5146799;27;20094;-64
2022/12/08 01:25:39;;;;;;;1.23;0.60;;;2.80;99.90;;;;;;5113833;28;20123;-64
2022/12/08 01:28:05;;;;;;;0.70;0.60;;;2.80;99.90;;;;;;5113896;28;20391;-64
2022/12/08 01:30:31;;;;;;;0.30;0.30;;;2.80;99.90;;;;;;5113932;28;20539;-64
2022/12/08 01:32:56;;;;;;;0.25;0.10;;;2.80;99.90;;;;;;5146599;27;20103;-64
2022/12/08 01:35:22;;;;;;;0.22;0.22;;;2.80;99.90;;;;;;5113851;28;20043;-64
2022/12/08 01:37:49;;;;;;;0.57;0.30;;;2.70;99.90;;;;;;5113755;28;20482;-64
2022/12/08 01:40:15;;;;;;;0.43;0.40;;;2.70;99.90;;;;;;5113827;28;20110;-64
2022/12/08 01:42:41;;;;;;;0.35;0.30;;;2.80;99.90;;;;;;5112476;28;20040;-64
2022/12/08 01:45:13;;;;;;;1.02;0.35;;;2.50;99.90;;;;;;5146273;27;20108;-64
2022/12/08 01:47:45;;;;;;;0.30;0.30;;;2.50;99.90;;;;;;5112388;28;20049;-64
2022/12/08 01:50:12;;;;;;;1.27;0.40;;;2.50;99.90;;;;;;5113642;28;20075;-66
2022/12/08 01:52:48;;;;;;;1.42;0.25;;;2.40;99.90;;;;;;5113678;28;20088;-64
2022/12/08 01:55:43;;;;;;;1.08;0.63;;;2.50;99.90;;;;;;5112120;28;20413;-64
2022/12/08 01:58:36;;;;;;;0.52;0.50;;;2.50;99.90;;;;;;5113594;28;20406;-64
2022/12/08 02:01:03;;;;;;;1.42;0.43;;;2.40;99.90;;;;;;5110962;28;20048;-64
2022/12/08 02:03:43;;;;;;;0.30;0.30;;;2.50;99.90;;;;;;5113584;28;20043;-64
2022/12/08 02:06:10;;;;;;;0.52;0.50;;;2.40;99.90;;;;;;5113430;28;20115;-64
2022/12/08 02:08:39;;;;;;;0.45;0.30;;;2.40;99.90;;;;;;5113513;28;20048;-64
2022/12/08 02:11:08;;;;;;;2.55;0.57;;;2.30;99.90;;;;;;5113471;28;20486;-64
2022/12/08 02:13:33;;;;;;;2.92;0.38;;;2.40;99.90;;;;;;5113383;28;20039;-71
2022/12/08 02:16:20;;;;;;;0.40;0.30;;;2.30;99.90;;;;;;5111803;28;20042;-71
2022/12/08 02:18:51;;;;;;;0.45;0.35;;;2.50;99.90;;;;;;5111853;28;20406;-71
2022/12/08 02:21:39;;;;;;;1.40;0.40;;;2.50;99.90;;;;;;5112174;28;20044;-71
2022/12/08 02:24:13;;;;;;;0.35;0.30;;;2.60;99.90;;;;;;5111830;28;20147;-71
2022/12/08 02:26:45;;;;;;;1.00;0.40;;;2.70;99.90;;;;;;5146129;27;20044;-71
2022/12/08 02:29:38;;;;;;;0.52;0.20;;;2.50;99.90;;;;;;5094816;28;20046;-71
2022/12/08 02:32:22;;;;;;;1.08;0.47;;;2.50;99.90;;;;;;5111722;28;20066;-71
2022/12/08 02:35:12;;;;;;;0.52;0.52;;;2.40;99.90;;;;;;5113269;28;20123;-72
2022/12/08 02:37:42;;;;;;;2.17;0.55;;;2.60;99.90;;;;;;5111893;28;20043;-71
2022/12/08 02:40:13;;;;;;;0.55;0.40;;;2.50;99.90;;;;;;5111861;28;20047;-71
2022/12/08 02:42:43;;;;;;;;;;;2.50;99.90;;;;;;5146477;27;20039;-71
2022/12/08 02:45:14;;;;;;;0.32;0.30;;;2.40;99.90;;;;;;5114249;28;19927;-70
2022/12/08 02:47:40;;;;;;;0.30;0.30;;;2.40;99.90;;;;;;5149803;27;20070;-71
2022/12/08 02:50:06;;;;;;;1.27;0.38;;;2.60;99.90;;;;;;5117023;28;20035;-72
2022/12/08 02:52:32;;;;;;;1.45;0.40;;;2.70;99.90;;;;;;5115338;28;20035;-72
2022/12/08 02:55:18;;;;;;;0.35;0.35;;;2.60;99.90;;;;;;5149718;27;20073;-71
2022/12/08 02:57:59;;;;;;;0.38;0.30;;;2.50;99.90;;;;;;5115624;28;20487;-71
2022/12/08 03:00:26;;;;;;;;;;;2.40;99.90;;;;;;5150147;27;20043;-72
2022/12/08 03:03:23;;;;;;;0.85;0.50;;;2.60;99.90;;;;;;5115404;28;19962;-72
2022/12/08 03:06:08;;;;;;;1.23;0.43;;;2.30;99.90;;;;;;5107128;28;20055;-71
2022/12/08 03:08:39;;;;;;;0.20;0.20;;;2.50;99.90;;;;;;5098000;28;20038;-71
2022/12/08 03:11:38;;;;;;;0.20;0.20;;;2.50;99.90;;;;;;5149709;27;20050;-71
2022/12/08 03:14:06;;;;;;;0.52;0.20;;;2.60;99.90;;;;;;5114995;28;20554;-72
2022/12/08 03:16:35;;;;;;;0.40;0.40;;;2.60;99.90;;;;;;5116247;28;20390;-74
2022/12/08 03:19:07;;;;;;;0.20;0.20;;;2.60;99.90;;;;;;5115033;28;20494;-72
2022/12/08 03:21:34;;;;;;;0.20;0.20;;;2.80;99.90;;;;;;5115350;28;20051;-70
2022/12/08 03:24:03;;;;;;;0.20;0.20;;;2.60;99.90;;;;;;5115026;28;20051;-72
2022/12/08 03:27:02;;;;;;;3.95;0.50;;;2.60;99.90;;;;;;5114799;28;20051;-70
2022/12/08 03:29:29;;;;;;;0.40;0.30;;;2.60;99.90;;;;;;5071265;28;20463;-71
2022/12/08 03:32:12;;;;;;;0.17;0.17;;;2.50;99.90;;;;;;5097587;28;20395;-72
2022/12/08 03:34:40;;;;;;;0.20;0.20;;;2.60;99.90;;;;;;5148995;27;20410;-72
2022/12/08 03:37:06;;;;;;;0.32;0.30;;;2.50;99.90;;;;;;5115938;28;20044;-71
2022/12/08 03:39:32;;;;;;;4.47;0.30;;;2.50;99.90;;;;;;5131504;27;20066;-71
2022/12/08 03:41:57;;;;;;;0.20;0.20;;;2.60;99.90;;;;;;5149063;27;20043;-72
2022/12/08 03:44:23;;;;;;;0.20;0.20;;;2.40;99.90;;;;;;5097457;28;20051;-72
2022/12/08 03:46:48;;;;;;;0.47;0.20;;;2.50;99.90;;;;;;5114281;28;20048;-72
2022/12/08 03:49:14;;;;;;;0.43;0.28;;;2.50;99.90;;;;;;5114168;28;20119;-73
2022/12/08 03:51:39;;;;;;;0.17;0.17;;;2.60;99.90;;;;;;5114258;28;20842;-72
2022/12/08 03:54:05;;;;;;;3.17;0.30;;;2.60;99.90;;;;;;5114087;28;20031;-71
2022/12/08 03:56:34;;;;;;;0.70;0.25;;;2.60;99.90;;;;;;5147747;27;20428;-71
2022/12/08 03:59:00;;;;;;;0.30;0.30;;;2.40;99.90;;;;;;5113671;28;20040;-72
2022/12/08 04:01:26;;;;;;;1.40;0.30;;;2.50;99.90;;;;;;5114188;28;20493;-72
2022/12/08 04:03:52;;;;;;;1.17;0.32;;;2.40;99.90;;;;;;5096981;28;20063;-71
2022/12/08 04:06:18;;;;;;;0.10;0.10;;;2.30;99.90;;;;;;5130636;27;20256;-71
2022/12/08 04:08:44;;;;;;;0.45;0.30;;;2.30;99.90;;;;;;5113941;28;20031;-71
2022/12/08 04:11:10;;;;;;;0.20;0.20;;;2.30;99.90;;;;;;5148258;27;20040;-71
2022/12/08 04:13:38;;;;;;;0.90;0.20;;;2.40;99.90;;;;;;5114098;28;20482;-72
2022/12/08 04:16:04;;;;;;;0.17;0.17;;;2.40;99.90;;;;;;5114924;28;20038;-71
2022/12/08 04:18:30;;;;;;;0.20;0.20;;;2.30;99.90;;;;;;5114116;28;20499;-71
2022/12/08 04:20:56;;;;;;;0.90;0.20;;;2.20;99.90;;;;;;5113581;28;20056;-71
2022/12/08 04:23:22;;;;;;;0.43;0.30;;;2.20;99.90;;;;;;5114837;28;20032;-72
2022/12/08 04:25:47;;;;;;;0.10;0.10;;;2.20;99.90;;;;;;5113388;28;20039;-72
2022/12/08 04:28:13;;;;;;;0.22;0.22;;;2.40;99.90;;;;;;5147715;27;20042;-72
2022/12/08 04:30:39;;;;;;;0.20;0.20;;;2.30;99.90;;;;;;5096362;28;20043;-73
2022/12/08 04:33:04;;;;;;;0.20;0.20;;;2.10;99.90;;;;;;5147578;27;20079;-71
2022/12/08 04:35:30;;;;;;;0.20;0.20;;;2.10;99.90;;;;;;5148026;27;20031;-71
2022/12/08 04:37:56;;;;;;;0.10;0.10;;;2.00;99.90;;;;;;5113225;28;20122;-70
2022/12/08 04:40:22;;;;;;;1.15;0.45;;;2.30;99.90;;;;;;5147592;27;20397;-71
2022/12/08 04:42:47;;;;;;;0.32;0.25;;;2.20;99.90;;;;;;5096841;28;20542;-71
2022/12/08 04:45:13;;;;;;;0.10;0.10;;;2.20;99.90;;;;;;5112875;28;20130;-72
2022/12/08 04:47:39;;;;;;;2.75;0.30;;;2.20;99.90;;;;;;5114530;28;20126;-72
2022/12/08 04:50:05;;;;;;;0.20;0.20;;;2.10;99.90;;;;;;5147723;27;20459;-72
2022/12/08 04:52:31;;;;;;;0.10;0.10;;;2.20;99.90;;;;;;5096353;28;20036;-71
2022/12/08 04:54:56;;;;;;;0.15;0.15;;;2.30;99.90;;;;;;5147360;27;20096;-71
2022/12/08 04:57:22;;;;;;;5.07;0.40;;;2.10;99.90;;;;;;5147333;27;20406;-71
2022/12/08 04:59:48;;;;;;;0.90;0.30;;;2.20;99.90;;;;;;5147377;27;20079;-72
2022/12/08 05:02:13;;;;;;;0.30;0.20;;;2.30;99.90;;;;;;5095876;28;20491;-72
2022/12/08 05:04:39;;;;;;;0.30;0.30;;;2.10;99.90;;;;;;5112751;28;20063;-72
2022/12/08 05:07:05;;;;;;;0.17;0.17;;;2.20;99.90;;;;;;5111830;28;20122;-70
2022/12/08 05:09:30;;;;;;;2.10;0.30;;;2.10;99.90;;;;;;5095646;28;20486;-72
2022/12/08 05:11:56;;;;;;;0.20;0.20;;;2.30;99.90;;;;;;5112908;28;20031;-71
2022/12/08 05:14:22;;;;;;;0.20;0.20;;;2.30;99.90;;;;;;5114138;28;20028;-71
2022/12/08 05:16:48;;;;;;;0.50;0.38;;;2.30;99.90;;;;;;5112601;28;20414;-72
2022/12/08 05:19:14;;;;;;;0.10;0.10;;;2.50;99.90;;;;;;5114069;28;20035;-71
2022/12/08 05:21:40;;;;;;;0.20;0.20;;;2.20;99.90;;;;;;5095571;28;20032;-72
2022/12/08 05:24:06;;;;;;;0.63;0.30;;;2.20;99.90;;;;;;5146904;27;20043;-71
2022/12/08 05:26:31;;;;;;;0.10;0.10;;;2.20;99.90;;;;;;5112770;28;20497;-71
2022/12/08 05:28:57;;;;;;;0.10;0.10;;;2.50;99.90;;;;;;5112439;28;20039;-71
2022/12/08 05:31:23;;;;;;;0.57;0.28;;;2.60;99.90;;;;;;5146895;27;20448;-72
2022/12/08 05:33:49;;;;;;;2.20;0.30;;;2.40;99.90;;;;;;5112574;28;20122;-71
2022/12/08 05:36:15;;;;;;;0.40;0.22;;;2.30;99.90;;;;;;5112385;28;20092;-70
2022/12/08 05:38:42;;;;;;;0.32;0.20;;;2.40;99.90;;;;;;5146657;27;20486;-71
2022/12/08 05:41:11;;;;;;;0.90;0.22;;;2.80;99.90;;;;;;5112278;28;20093;-71
2022/12/08 05:43:36;;;;;;;0.47;0.20;;;2.40;99.90;;;;;;5113438;28;20037;-71
2022/12/08 05:46:02;;;;;;;0.45;0.17;;;2.20;99.90;;;;;;5095140;28;20062;-72
2022/12/08 05:48:27;;;;;;;1.40;0.20;;;2.40;99.90;;;;;;5146472;27;20054;-72
2022/12/08 05:50:53;;;;;;;0.63;0.30;;;2.40;99.90;;;;;;5146883;27;20078;-72
2022/12/08 05:53:19;;;;;;;0.10;0.10;;;2.30;99.90;;;;;;5112064;28;20040;-71
2022/12/08 05:55:45;;;;;;;0.10;0.10;;;2.40;99.90;;;;;;5112166;28;20043;-71
2022/12/08 05:58:16;;;;;;;0.10;0.10;;;2.40;99.90;;;;;;5112157;28;20059;-72
2022/12/08 06:00:42;;;;;;;2.40;0.40;;;2.30;99.90;;;;;;5094957;28;20043;-72
2022/12/08 06:03:10;;;;;;;1.27;0.20;;;2.50;99.90;;;;;;5146381;27;20494;-71
2022/12/08 06:05:36;;;;;;;0.13;0.13;;;2.20;99.90;;;;;;5111873;28;20031;-71
2022/12/08 06:08:02;;;;;;;5.28;0.95;;;2.50;99.90;;;;;;5113402;28;20035;-71
2022/12/08 06:10:28;;;;;;;0.10;0.10;;;2.30;99.90;;;;;;5111817;28;20403;-71
2022/12/08 06:12:53;;;;;;;0.20;0.20;;;2.20;99.90;;;;;;5112134;28;20035;-70
2022/12/08 06:15:19;;;;;;;1.17;0.20;;;2.30;99.90;;;;;;5146164;27;20040;-70
2022/12/08 06:17:44;;;;;;;0.20;0.20;;;2.40;99.90;;;;;;5112720;28;20062;-72
2022/12/08 06:20:10;;;;;;;0.30;0.20;;;2.50;99.90;;;;;;5115905;28;20122;-71
2022/12/08 06:22:36;;;;;;;0.10;0.10;;;3.00;99.90;;;;;;5115967;28;20050;-71
2022/12/08 06:25:02;;;;;;;1.85;0.20;;;2.10;99.90;;;;;;5150044;27;20046;-71
2022/12/08 06:27:27;;;;;;;0.20;0.20;;;2.10;99.90;;;;;;5150385;27;20482;-71
2022/12/08 06:29:53;;;;;;;0.20;0.20;;;2.10;99.90;;;;;;5115880;28;20044;-71
2022/12/08 06:32:18;;;;;;;0.20;0.20;;;2.10;99.90;;;;;;5117435;28;20510;-72
2022/12/08 06:34:44;;;;;;;0.13;0.13;;;2.10;99.90;;;;;;5115815;28;20398;-71
2022/12/08 06:37:10;;;;;;;2.92;0.10;;;2.30;99.90;;;;;;5115866;28;20035;-72
2022/12/08 06:39:35;;;;;;;0.20;0.20;;;2.10;99.90;;;;;;5115666;28;20424;-70
2022/12/08 06:44:45;;;;;;;1.65;0.30;;;2.10;99.90;;;;;;5116929;28;20499;-69
2022/12/08 06:47:11;;;;;;;0.10;0.10;;;2.00;99.90;;;;;;5115913;28;20031;-71
2022/12/08 06:49:36;;;;;;;0.10;0.10;;;1.90;99.90;;;;;;5115705;28;20062;-71
2022/12/08 06:52:02;;;;;;;0.43;0.10;;;2.00;99.90;;;;;;5150137;27;20066;-71
2022/12/08 06:54:27;;;;;;;0.20;0.20;;;2.00;99.90;;;;;;5115948;28;20039;-72
2022/12/08 06:56:53;;;;;;;0.28;0.28;;;2.20;99.90;;;;;;5116968;28;20039;-71
2022/12/08 06:59:19;;;;;;;0.47;0.30;;;2.10;99.90;;;;;;5115721;28;20039;-71
2022/12/08 07:01:45;;;;;;;0.25;0.22;;;2.00;99.90;;;;;;5116481;28;20067;-70
2022/12/08 07:04:11;;;;;;;0.68;0.43;;;2.00;99.90;;;;;;5116660;28;20402;-71
2022/12/08 07:06:36;;;;;;;1.25;0.45;;;2.00;99.90;;;;;;5115741;28;20043;-72
2022/12/08 07:09:02;;;;;;;0.30;0.30;;;2.20;99.90;;;;;;5149819;27;20061;-71
2022/12/08 07:11:28;;;;;;;0.77;0.60;;;2.20;99.90;;;;;;5098600;28;20078;-69
2022/12/08 07:13:57;;;;;;;1.10;0.40;;;2.20;99.90;;;;;;5116291;28;20078;-69
2022/12/08 07:16:22;;;;;;;0.32;0.32;;;1.90;99.90;;;;;;5149402;27;20055;-72
2022/12/08 07:18:48;;;;;;;0.57;0.47;;;1.80;99.90;;;;;;5116183;28;20036;-72
2022/12/08 07:21:14;;;;;;;0.40;0.40;;;1.90;99.90;;;;;;5114988;28;20462;-71
2022/12/08 07:23:40;;;;;;;3.83;1.45;;;1.80;99.90;;;;;;5114808;28;20040;-70
2022/12/08 07:26:09;;;;;;;4.93;2.40;;;1.90;99.90;;;;;;5115840;28;20035;-71
2022/12/08 07:28:37;;;;;;;16.25;5.25;;;2.00;99.90;;;;;;5115074;28;20043;-71
2022/12/08 07:31:03;;;;;;;4.78;2.58;;;2.10;99.90;;;;;;5148496;27;20039;-72
2022/12/08 07:33:29;;;;;;;2.72;1.90;;;2.40;99.90;;;;;;5116171;28;20038;-71
2022/12/08 07:35:57;;;;;;;4.55;2.35;;;1.90;99.90;;;;;;5114849;28;20121;-71
2022/12/08 07:38:24;;;;;;;6.55;2.75;;;1.90;99.90;;;;;;5114538;28;20040;-72
2022/12/08 07:40:50;;;;;;;4.38;2.60;;;2.00;99.90;;;;;;5114593;28;20131;-71
2022/12/08 07:43:16;;;;;;;5.45;2.40;;;1.90;99.90;;;;;;5115644;28;20042;-71
2022/12/08 07:45:41;;;;;;;1.75;1.52;;;2.00;99.90;;;;;;5114206;28;20127;-71
2022/12/08 07:48:07;;;;;;;2.22;1.60;;;1.90;99.90;;;;;;5114374;28;20082;-70
2022/12/08 07:50:33;;;;;;;3.03;1.55;;;1.90;99.90;;;;;;5114308;28;20036;-71
2022/12/08 07:52:59;;;;;;;1.25;1.00;;;1.80;99.90;;;;;;5113302;28;20043;-71
2022/12/08 07:55:24;;;;;;;1.30;0.85;;;1.70;99.90;;;;;;5147994;27;20467;-72
2022/12/08 07:57:50;;;;;;;1.13;0.65;;;1.90;99.90;;;;;;5113547;28;20035;-71
2022/12/08 08:00:17;;;;;;;3.38;0.60;;;1.80;99.90;;;;;;5114801;28;20074;-71
2022/12/08 08:02:43;;;;;;;1.05;0.93;;;1.80;99.90;;;;;;5113408;28;20048;-70
2022/12/08 08:05:09;;;;;;;1.67;1.30;;;1.70;99.90;;;;;;5113105;28;20044;-72
2022/12/08 08:07:35;;;;;;;2.00;1.08;;;1.70;99.90;;;;;;5113149;28;20083;-71
2022/12/08 08:10:02;;;;;;;1.67;1.00;;;1.70;99.90;;;;;;5113104;28;20035;-71
2022/12/08 08:12:27;;;;;;;5.28;1.98;;;1.90;99.90;;;;;;5113383;28;20074;-70
2022/12/08 08:14:53;;;;;;;2.67;1.67;;;1.60;99.90;;;;;;5147547;27;20101;-71
2022/12/08 08:17:18;;;;;;;1.42;1.10;;;1.60;99.90;;;;;;5114168;28;20039;-71
2022/12/08 08:19:45;;;;;;;1.15;0.80;;;1.60;99.90;;;;;;5112821;28;20039;-71
2022/12/08 08:22:10;;;;;;;1.10;0.80;;;1.50;99.90;;;;;;5112839;28;20122;-70
2022/12/08 08:24:36;;;;;;;4.25;1.13;;;1.50;99.90;;;;;;5147183;27;20600;-69
2022/12/08 08:27:02;;;;;;;2.80;0.80;;;1.50;99.90;;;;;;5114282;28;20118;-71
2022/12/08 08:29:28;;;;;;;2.28;0.80;;;1.50;99.90;;;;;;5112959;28;20124;-71
2022/12/08 08:31:53;;;;;;;0.82;0.80;;;1.50;99.90;;;;;;5147065;27;20085;-72
2022/12/08 08:34:19;;;;;;;0.90;0.68;;;1.50;99.90;;;;;;5148098;27;20035;-71
2022/12/08 08:36:45;;;;;;;1.10;0.90;;;1.50;99.90;;;;;;5147200;27;20419;-71
2022/12/08 08:39:11;;;;;;;0.98;0.68;;;1.40;99.90;;;;;;5146730;27;20119;-70
2022/12/08 08:41:37;;;;;;;1.27;0.90;;;1.50;99.90;;;;;;5114043;28;20044;-70
2022/12/08 08:44:03;;;;;;;1.20;0.80;;;1.40;99.90;;;;;;5112416;28;20403;-71
2022/12/08 08:46:28;;;;;;;1.23;0.63;;;1.50;99.90;;;;;;5112220;28;20044;-70
2022/12/08 08:48:54;;;;;;;2.58;0.80;;;1.40;99.90;;;;;;5146688;27;20039;-70
2022/12/08 08:51:19;;;;;;;2.15;0.55;;;1.50;99.90;;;;;;5112284;28;20075;-70
2022/12/08 08:53:45;;;;;;;0.40;0.40;;;1.50;99.90;;;;;;5146814;27;20061;-71
2022/12/08 08:56:15;;;;;;;2.53;0.63;;;1.50;99.90;;;;;;5112389;28;20040;-71
2022/12/08 08:58:41;;;;;;;1.85;0.75;;;1.40;99.90;;;;;;5113299;28;20036;-71
2022/12/08 09:01:07;;;;;;;0.75;0.65;;;1.40;99.90;;;;;;5112285;28;20047;-70
2022/12/08 09:03:33;;;;;;;0.95;0.65;;;1.50;99.90;;;;;;5113537;28;20050;-71
2022/12/08 09:05:58;;;;;;;1.95;0.90;;;1.50;99.90;;;;;;5111949;28;20414;-71
2022/12/08 09:08:24;;;;;;;1.55;0.70;;;1.50;99.90;;;;;;5128979;27;20032;-71
2022/12/08 09:10:49;;;;;;;1.42;1.10;;;1.50;99.90;;;;;;5113445;28;20036;-70
2022/12/08 09:13:15;;;;;;;3.40;2.05;;;1.60;99.90;;;;;;5146121;27;20040;-71
2022/12/08 09:15:41;;;;;;;3.35;1.17;;;1.60;99.90;;;;;;5113078;28;20490;-70
2022/12/08 09:18:06;;;;;;;2.95;1.08;;;1.70;99.90;;;;;;5146345;27;20043;-71
2022/12/08 09:20:33;;;;;;;0.90;0.40;;;1.80;99.90;;;;;;5112047;28;20039;-70
2022/12/08 09:22:59;;;;;;;0.90;0.80;;;1.90;99.90;;;;;;5112953;28;20036;-71
2022/12/08 09:25:24;;;;;;;2.13;1.35;;;1.90;99.90;;;;;;5146185;27;20085;-71
2022/12/08 09:27:50;;;;;;;0.65;0.60;;;1.90;99.90;;;;;;5111937;28;20032;-71
2022/12/08 09:30:16;;;;;;;4.57;1.42;;;1.90;99.90;;;;;;5145986;27;20115;-71
2022/12/08 09:32:41;;;;;;;1.90;0.90;;;1.90;99.90;;;;;;5111633;28;20028;-71
2022/12/08 09:35:07;;;;;;;22.30;8.93;;;1.90;99.90;;;;;;5094466;28;20043;-69
2022/12/08 09:37:33;;;;;;;1.63;0.98;;;1.80;99.90;;;;;;5145661;27;20078;-70
2022/12/08 09:39:58;;;;;;;4.65;2.63;;;1.80;99.90;;;;;;5112846;28;20118;-71
2022/12/08 09:43:02;;;;;;;5.57;2.95;;;1.90;99.90;;;;;;5111701;28;20122;-71
2022/12/08 09:45:33;;;;;;;2.33;1.15;;;1.90;99.90;;;;;;5112444;28;20408;-70
2022/12/08 09:48:05;;;;;;;1.67;1.20;;;1.90;99.90;;;;;;5111324;28;20474;-71
2022/12/08 09:50:55;;;;;;;1.88;1.30;;;1.90;99.90;;;;;;5111617;28;20030;-71
2022/12/08 09:53:20;;;;;;;1.95;1.05;;;2.00;99.90;;;;;;5110869;28;20047;-71
2022/12/08 09:55:59;;;;;;;5.22;0.90;;;2.10;99.90;;;;;;5145876;27;20482;-71
2022/12/08 09:58:34;;;;;;;5.25;3.08;;;2.20;99.90;;;;;;5111221;28;20043;-70
2022/12/08 10:01:00;;;;;;;13.45;4.90;;;2.40;99.90;;;;;;5111138;28;20120;-69
2022/12/08 10:03:28;;;;;;;6.25;3.25;;;2.70;99.90;;;;;;5111168;28;20069;-71
2022/12/08 10:06:06;;;;;;;7.35;1.80;;;2.70;99.90;;;;;;5111039;28;20051;-72
2022/12/08 10:09:13;;;;;;;7.40;2.72;;;2.70;99.90;;;;;;5094389;28;20126;-70
2022/12/08 10:12:07;;;;;;;6.25;2.75;;;2.90;99.90;;;;;;5111333;28;20040;-71
2022/12/08 10:14:56;;;;;;;4.68;0.82;;;3.00;99.90;;;;;;5111104;28;20048;-69
2022/12/08 10:17:44;;;;;;;1.70;0.90;;;3.10;99.90;;;;;;5112568;28;20036;-70
2022/12/08 10:20:19;;;;;;;0.77;0.63;;;3.20;99.90;;;;;;5110961;28;20103;-70
2022/12/08 10:22:48;;;;;;;0.50;0.50;;;3.20;99.90;;;;;;5111076;28;20506;-71
2022/12/08 10:25:16;;;;;;;2.08;0.80;;;3.30;99.90;;;;;;5110863;28;20039;-70
2022/12/08 10:27:42;;;;;;;1.75;0.90;;;3.40;99.90;;;;;;5145541;27;20505;-70
2022/12/08 10:30:13;;;;;;;0.52;0.50;;;3.50;99.90;;;;;;5110947;28;20047;-69
2022/12/08 10:32:42;;;;;;;0.53;0.50;;;3.60;99.90;;;;;;5110959;28;20048;-70
2022/12/08 10:35:11;;;;;;;2.38;0.95;;;3.60;99.90;;;;;;5110846;28;20150;-70
2022/12/08 10:37:37;;;;;;;0.55;0.52;;;3.70;99.90;;;;;;5111146;28;20536;-71
2022/12/08 10:40:17;;;;;;;0.70;0.43;;;3.70;99.90;;;;;;5111015;28;20126;-70
2022/12/08 10:42:51;;;;;;;0.30;0.30;;;3.80;99.90;;;;;;5112398;28;20085;-71
2022/12/08 10:45:32;;;;;;;1.20;0.40;;;3.80;99.90;;;;;;5093659;28;20449;-71
2022/12/08 10:48:01;;;;;;;1.27;0.52;;;3.80;99.90;;;;;;5111085;28;20055;-71
2022/12/08 10:50:42;;;;;;;1.45;0.65;;;3.80;99.90;;;;;;5110742;28;20122;-70
2022/12/08 10:53:07;;;;;;;1.80;0.80;;;3.90;99.90;;;;;;5110706;28;20071;-70
2022/12/08 10:55:45;;;;;;;1.02;0.50;;;3.90;99.90;;;;;;5145172;27;20040;-70
2022/12/08 10:58:27;;;;;;;1.52;1.10;;;3.90;99.90;;;;;;5112202;28;20078;-70
2022/12/08 11:01:00;;;;;;;4.00;2.15;;;3.80;99.90;;;;;;5110591;28;20039;-70
2022/12/08 11:03:33;;;;;;;11.07;1.52;;;3.80;99.90;;;;;;5110739;28;20086;-70
2022/12/08 11:06:00;;;;;;;2.38;1.52;;;3.80;99.90;;;;;;5112910;28;20046;-71
2022/12/08 11:08:28;;;;;;;4.15;1.98;;;3.80;99.90;;;;;;5115769;28;20062;-71
2022/12/08 11:10:53;;;;;;;5.78;1.83;;;3.80;99.90;;;;;;5114146;28;20046;-70
2022/12/08 11:13:26;;;;;;;5.90;2.70;;;3.90;99.90;;;;;;5114485;28;20035;-69
2022/12/08 11:15:54;;;;;;;3.55;1.48;;;3.90;99.90;;;;;;5114127;28;20074;-69
2022/12/08 11:18:27;;;;;;;7.65;3.60;;;4.00;99.90;;;;;;5114084;28;20086;-72
2022/12/08 11:20:59;;;;;;;7.60;5.15;;;4.10;99.90;;;;;;5114237;28;20088;-70
2022/12/08 11:23:29;;;;;;;7.68;4.43;;;4.20;99.90;;;;;;5115540;28;20046;-71
2022/12/08 11:26:00;;;;;;;4.47;3.05;;;4.30;99.90;;;;;;5115419;28;20039;-69
2022/12/08 11:28:25;;;;;;;3.15;1.25;;;4.20;99.90;;;;;;5113912;28;20058;-70
2022/12/08 11:30:57;;;;;;;12.15;3.70;;;4.30;99.90;;;;;;5148220;27;20035;-71
2022/12/08 11:33:23;;;;;;;;;;;4.30;99.90;;;;;;5114148;28;20039;-71
2022/12/08 11:35:55;;;;;;;4.47;1.08;;;4.60;99.90;;;;;;5115355;27;19922;-71
2022/12/08 11:38:22;;;;;;;;;;;4.70;99.90;;;;;;5114127;28;20383;-70
2022/12/08 11:41:03;;;;;;;4.15;1.77;;;4.70;99.90;;;;;;5115235;28;19919;-70
2022/12/08 11:43:38;;;;;;;1.40;0.77;;;4.90;99.90;;;;;;5113963;28;20048;-70
2022/12/08 11:46:10;;;;;;;2.95;1.75;;;4.90;99.90;;;;;;5147853;27;20339;-71
2022/12/08 11:48:45;;;;;;;7.43;1.80;;;5.00;99.90;;;;;;5147813;27;20036;-69
2022/12/08 11:51:33;;;;;;;2.30;0.60;;;5.50;99.90;;;;;;5147788;27;20062;-70
2022/12/08 11:54:12;;;;;;;9.38;3.08;;;6.00;99.90;;;;;;5148016;27;20051;-70
2022/12/08 11:56:42;;;;;;;26.45;10.00;;;6.50;99.90;;;;;;5114983;28;20050;-70
2022/12/08 11:59:28;;;;;;;5.45;2.78;;;6.40;99.90;;;;;;5113351;28;20051;-70
2022/12/08 12:01:55;;;;;;;1.25;0.80;;;6.40;99.90;;;;;;5113499;28;20093;-70
2022/12/08 12:04:50;;;;;;;1.67;1.13;;;6.70;99.90;;;;;;5113159;28;20039;-70
2022/12/08 12:07:44;;;;;;;0.95;0.55;;;6.70;99.90;;;;;;5113165;28;20059;-70
2022/12/08 12:10:43;;;;;;;1.50;0.85;;;6.00;99.90;;;;;;5114591;28;20035;-70
2022/12/08 12:13:19;;;;;;;1.33;0.63;;;5.70;99.90;;;;;;5114585;28;20070;-70
2022/12/08 12:16:21;;;;;;;0.52;0.40;;;5.60;99.90;;;;;;5114209;28;20444;-69
2022/12/08 12:19:03;;;;;;;0.95;0.57;;;5.30;99.90;;;;;;5112922;28;20047;-71
2022/12/08 12:21:41;;;;;;;1.55;0.60;;;5.10;99.90;;;;;;5114517;28;20082;-69
2022/12/08 12:24:13;;;;;;;11.80;4.30;;;4.90;99.90;;;;;;5095839;28;20047;-69
2022/12/08 12:26:59;;;;;;;5.68;0.80;;;4.80;99.90;;;;;;5113854;28;20082;-71
2022/12/08 12:29:28;;;;;;;5.35;2.35;;;4.70;99.90;;;;;;5097270;28;20035;-69
2022/12/08 12:32:00;;;;;;;7.13;3.88;;;4.60;99.90;;;;;;5114220;28;20372;-69
2022/12/08 12:34:32;;;;;;;3.10;1.98;;;4.60;99.90;;;;;;5114272;28;20057;-70
2022/12/08 12:37:11;;;;;;;6.13;1.90;;;4.60;99.90;;;;;;5112825;28;20035;-69
2022/12/08 12:39:51;;;;;;;2.60;1.10;;;4.60;99.90;;;;;;5112854;28;20043;-69
2022/12/08 12:42:43;;;;;;;3.00;2.20;;;4.60;99.90;;;;;;5113715;28;20126;-69
2022/12/08 12:45:20;;;;;;;5.38;1.35;;;4.40;99.90;;;;;;5146814;27;20107;-69
2022/12/08 12:47:57;;;;;;;28.85;13.63;;;4.30;99.90;;;;;;5113655;28;20422;-69
2022/12/08 12:50:44;;;;;;;13.63;3.30;;;4.20;99.90;;;;;;5112361;28;20040;-69
2022/12/08 12:53:15;;;;;;;2.80;1.60;;;4.20;99.90;;;;;;5113791;28;20555;-70
2022/12/08 12:56:03;;;;;;;4.93;1.98;;;4.10;99.90;;;;;;5146736;27;20131;-69
2022/12/08 12:58:28;;;;;;;6.55;3.10;;;4.10;99.90;;;;;;5112340;28;20126;-69
2022/12/08 13:01:10;;;;;;;5.70;2.70;;;4.10;99.90;;;;;;5146451;27;20479;-69
2022/12/08 13:03:44;;;;;;;1.35;0.80;;;4.00;99.90;;;;;;5113332;28;20054;-70
2022/12/08 13:06:12;;;;;;;1.20;0.90;;;4.10;99.90;;;;;;5111923;28;20126;-69
2022/12/08 13:08:51;;;;;;;3.53;1.67;;;4.00;99.90;;;;;;5111958;28;20044;-70
2022/12/08 13:11:16;;;;;;;14.35;6.53;;;4.00;99.90;;;;;;5113524;28;20036;-69
2022/12/08 13:14:03;;;;;;;7.80;3.55;;;4.00;99.90;;;;;;5146375;27;20081;-69
2022/12/08 13:16:38;;;;;;;9.35;3.85;;;3.90;99.90;;;;;;5112084;28;20482;-69
2022/12/08 13:19:11;;;;;;;6.82;2.80;;;3.90;99.90;;;;;;5113288;28;20046;-70
2022/12/08 13:21:38;;;;;;;3.90;1.50;;;3.90;99.90;;;;;;5112964;28;20086;-70